createdAt,value
2022-11-02T00:01:40.653Z,91.90
2022-11-02T00:05:55.770Z,92.10
2022-11-02T00:10:10.792Z,92.30
2022-11-02T00:14:24.421Z,92.40
2022-11-02T00:18:38.611Z,92.70
2022-11-02T00:22:57.129Z,92.70
2022-11-02T00:27:11.376Z,92.40
2022-11-02T00:31:25.141Z,92.30
2022-11-02T00:35:39.524Z,92.20
2022-11-02T00:39:54.611Z,92.20
2022-11-02T00:44:08.302Z,92.20
2022-11-02T00:48:22.049Z,92.20
2022-11-02T00:52:36.110Z,92.30
2022-11-02T00:56:51.506Z,92.50
2022-11-02T01:01:06.339Z,92.70
2022-11-02T01:05:20.272Z,92.70
2022-11-02T01:09:35.040Z,92.70
2022-11-02T01:13:52.210Z,92.60
2022-11-02T01:18:06.485Z,92.60
2022-11-02T01:22:21.072Z,92.60
2022-11-02T01:26:34.995Z,92.90
2022-11-02T01:30:50.089Z,93.00
2022-11-02T01:35:04.033Z,93.00
2022-11-02T01:39:17.864Z,93.20
2022-11-02T01:43:33.692Z,93.80
2022-11-02T01:47:50.078Z,94.20
2022-11-02T01:52:09.446Z,94.20
2022-11-02T01:56:26.816Z,94.20
2022-11-02T02:00:41.155Z,94.30
2022-11-02T02:05:32.576Z,94.60
2022-11-02T02:10:04.073Z,95.00
2022-11-02T02:14:21.356Z,95.30
2022-11-02T02:18:41.871Z,95.50
2022-11-02T02:23:34.318Z,95.60
2022-11-02T02:28:05.881Z,95.40
2022-11-02T02:32:26.421Z,95.30
2022-11-02T02:41:06.592Z,95.30
2022-11-02T02:45:27.256Z,95.50
2022-11-02T02:49:46.569Z,95.50
2022-11-02T02:54:04.381Z,95.40
2022-11-02T02:58:23.958Z,95.20
2022-11-02T03:02:40.288Z,95.00
2022-11-02T03:06:58.515Z,94.80
2022-11-02T03:11:15.933Z,94.50
2022-11-02T03:15:38.574Z,94.20
2022-11-02T03:20:00.324Z,93.90
2022-11-02T03:24:20.116Z,93.70
2022-11-02T03:28:47.730Z,93.40
2022-11-02T03:33:08.079Z,93.20
2022-11-02T03:37:29.237Z,92.90
2022-11-02T03:41:46.372Z,92.70
2022-11-02T03:46:04.386Z,92.50
2022-11-02T03:50:23.261Z,92.50
2022-11-02T03:54:45.752Z,92.50
2022-11-02T03:59:00.237Z,92.50
2022-11-02T04:03:15.027Z,92.50
2022-11-02T04:07:58.448Z,92.50
2022-11-02T04:12:33.544Z,92.50
2022-11-02T04:16:47.505Z,92.40
2022-11-02T04:21:10.632Z,92.10
2022-11-02T04:25:23.973Z,92.10
2022-11-02T04:30:06.054Z,92.20
2022-11-02T04:34:21.990Z,92.30
2022-11-02T04:38:41.611Z,92.30
2022-11-02T04:43:10.496Z,92.40
2022-11-02T04:47:25.858Z,92.60
2022-11-02T04:51:47.115Z,92.60
2022-11-02T04:56:05.405Z,92.60
2022-11-02T05:00:21.548Z,92.60
2022-11-02T05:04:38.076Z,92.50
2022-11-02T05:08:52.067Z,92.30
2022-11-02T05:13:05.974Z,92.20
2022-11-02T05:17:22.323Z,92.10
2022-11-02T05:21:37.451Z,92.10
2022-11-02T05:25:55.272Z,92.10
2022-11-02T05:30:11.352Z,92.00
2022-11-02T05:34:25.304Z,92.00
2022-11-02T05:38:41.638Z,91.90
2022-11-02T05:43:01.032Z,92.00
2022-11-02T05:47:15.532Z,92.00
2022-11-02T05:51:29.294Z,91.90
2022-11-02T05:55:44.432Z,91.90
2022-11-02T05:59:58.139Z,91.90
2022-11-02T06:04:11.970Z,91.90
2022-11-02T06:08:26.228Z,91.80
2022-11-02T06:12:41.497Z,91.60
2022-11-02T06:16:55.152Z,91.50
2022-11-02T06:21:09.501Z,91.20
2022-11-02T06:25:23.201Z,91.00
2022-11-02T06:29:38.287Z,90.70
2022-11-02T06:33:51.978Z,90.20
2022-11-02T06:38:05.726Z,89.60
2022-11-02T06:42:19.497Z,89.00
2022-11-02T06:46:34.578Z,88.40
2022-11-02T06:50:48.559Z,88.00
2022-11-02T06:55:02.443Z,87.80
2022-11-02T06:59:16.157Z,87.50
2022-11-02T07:03:31.935Z,87.10
2022-11-02T07:07:45.947Z,86.60
2022-11-02T07:11:59.639Z,86.30
2022-11-02T07:16:13.527Z,86.00
2022-11-02T07:20:30.472Z,86.30
2022-11-02T07:24:44.216Z,85.80
2022-11-02T07:28:59.440Z,85.30
2022-11-02T07:33:13.578Z,85.30
2022-11-02T07:37:28.770Z,86.90
2022-11-02T07:41:42.437Z,85.80
2022-11-02T07:45:56.211Z,80.10
2022-11-02T07:50:10.079Z,73.40
2022-11-02T07:54:26.484Z,69.30
2022-11-02T07:58:40.363Z,70.30
2022-11-02T08:02:56.528Z,69.90
2022-11-02T08:07:10.275Z,67.80
2022-11-02T08:11:25.351Z,65.50
2022-11-02T08:15:39.395Z,63.60
2022-11-02T08:19:53.117Z,62.70
2022-11-02T08:24:07.702Z,58.40
2022-11-02T08:28:25.271Z,58.90
2022-11-02T08:32:39.021Z,61.20
2022-11-02T08:36:52.707Z,61.80
2022-11-02T08:41:07.015Z,60.50
2022-11-02T08:45:22.301Z,58.50
2022-11-02T08:49:35.992Z,57.80
2022-11-02T08:53:51.904Z,58.00
2022-11-02T08:58:06.259Z,55.10
2022-11-02T09:02:21.660Z,54.00
2022-11-02T09:06:35.572Z,53.00
2022-11-02T09:10:50.933Z,51.50
2022-11-02T09:15:05.109Z,51.10
2022-11-02T09:19:20.170Z,51.40
2022-11-02T09:23:34.547Z,50.20
2022-11-02T09:27:51.580Z,50.20
2022-11-02T09:32:08.873Z,49.90
2022-11-02T09:36:23.939Z,49.40
2022-11-02T09:40:39.784Z,49.60
2022-11-02T09:45:00.471Z,49.20
2022-11-02T09:49:17.735Z,49.30
2022-11-02T09:53:42.953Z,49.20
2022-11-02T09:58:02.322Z,49.10
2022-11-02T10:02:29.828Z,49.10
2022-11-02T10:06:52.513Z,49.20
2022-11-02T10:11:28.039Z,49.00
2022-11-02T10:15:46.463Z,49.50
2022-11-02T10:20:04.336Z,48.70
2022-11-02T10:24:25.757Z,48.00
2022-11-02T10:28:44.142Z,47.50
2022-11-02T10:32:58.648Z,47.30
2022-11-02T10:37:33.900Z,47.00
2022-11-02T10:42:11.904Z,47.00
2022-11-02T10:46:42.531Z,46.40
2022-11-02T10:51:08.538Z,46.10
2022-11-02T10:55:30.286Z,46.50
2022-11-02T10:59:43.972Z,46.00
2022-11-02T11:04:00.947Z,45.10
2022-11-02T11:08:30.517Z,44.10
2022-11-02T11:12:45.744Z,43.30
2022-11-02T11:21:42.115Z,44.10
2022-11-02T11:25:58.933Z,43.60
2022-11-02T11:35:03.607Z,43.50
2022-11-02T11:39:27.153Z,42.90
2022-11-02T11:43:41.645Z,43.00
2022-11-02T11:48:00.497Z,42.60
2022-11-02T11:52:21.027Z,43.10
2022-11-02T11:56:36.266Z,43.20
2022-11-02T12:01:09.421Z,43.40
2022-11-02T12:05:25.030Z,42.40
2022-11-02T12:09:48.203Z,42.00
2022-11-02T12:14:22.098Z,43.30
2022-11-02T12:18:50.345Z,44.50
2022-11-02T12:23:17.280Z,45.60
2022-11-02T12:27:38.107Z,46.70
2022-11-02T12:32:06.548Z,47.50
2022-11-02T12:36:34.727Z,48.10
2022-11-02T12:40:58.400Z,48.80
2022-11-02T12:45:33.264Z,49.90
2022-11-02T12:50:02.401Z,50.10
2022-11-02T12:54:21.327Z,49.80
2022-11-02T12:58:38.775Z,50.00
2022-11-02T13:03:00.850Z,50.40
2022-11-02T13:07:19.966Z,50.40
2022-11-02T13:11:38.132Z,50.60
2022-11-02T13:15:52.739Z,50.80
2022-11-02T13:20:15.001Z,50.50
2022-11-02T13:24:35.611Z,50.10
2022-11-02T13:28:53.946Z,49.40
2022-11-02T13:33:15.726Z,49.50
2022-11-02T13:37:34.545Z,50.30
2022-11-02T13:42:36.016Z,49.80
2022-11-02T13:47:20.702Z,50.30
2022-11-02T13:51:39.028Z,50.60
2022-11-02T13:55:56.807Z,50.80
2022-11-02T14:00:30.550Z,51.00
2022-11-02T14:04:46.055Z,51.20
2022-11-02T14:09:02.931Z,50.90
2022-11-02T14:13:17.679Z,50.80
2022-11-02T14:18:04.301Z,50.70
2022-11-02T14:22:19.818Z,50.70
2022-11-02T14:26:53.655Z,50.90
2022-11-02T14:31:37.779Z,51.00
2022-11-02T14:35:59.409Z,51.50
2022-11-02T14:40:26.132Z,51.90
2022-11-02T14:45:10.570Z,52.20
2022-11-02T14:49:27.901Z,52.50
2022-11-02T14:53:43.790Z,52.50
2022-11-02T14:58:03.396Z,52.80
2022-11-02T15:02:25.013Z,52.90
2022-11-02T15:06:38.868Z,53.20
2022-11-02T15:10:54.053Z,53.20
2022-11-02T15:15:27.607Z,53.40
2022-11-02T15:19:46.321Z,53.80
2022-11-02T15:24:24.839Z,54.00
2022-11-02T15:28:40.104Z,54.30
2022-11-02T15:33:01.658Z,54.70
2022-11-02T15:37:19.496Z,55.00
2022-11-02T15:41:40.376Z,55.40
2022-11-02T15:46:06.469Z,55.90
2022-11-02T15:50:36.961Z,56.30
2022-11-02T15:55:04.992Z,56.70
2022-11-02T15:59:46.060Z,57.00
2022-11-02T16:04:04.114Z,57.20
2022-11-02T16:08:26.115Z,57.40
2022-11-02T16:12:40.368Z,57.90
2022-11-02T16:16:54.109Z,58.10
2022-11-02T16:21:13.873Z,58.10
2022-11-02T16:25:39.718Z,59.20
2022-11-02T16:29:54.527Z,58.80
2022-11-02T16:34:19.732Z,59.20
2022-11-02T16:38:36.857Z,59.70
2022-11-02T16:42:54.402Z,60.10
2022-11-02T16:47:18.672Z,60.50
2022-11-02T16:51:32.497Z,60.90
2022-11-02T16:55:49.201Z,61.20
2022-11-02T17:00:05.313Z,61.40
2022-11-02T17:04:22.648Z,61.80
2022-11-02T17:08:38.384Z,62.30
2022-11-02T17:12:54.376Z,62.60
2022-11-02T17:17:10.068Z,63.00
2022-11-02T17:21:27.272Z,63.10
2022-11-02T17:25:41.727Z,63.30
2022-11-02T17:29:56.900Z,63.60
2022-11-02T17:34:12.361Z,63.60
2022-11-02T17:38:28.237Z,63.70
2022-11-02T17:43:00.871Z,63.80
2022-11-02T17:47:18.770Z,64.10
2022-11-02T17:51:32.457Z,64.40
2022-11-02T17:55:46.243Z,64.50
2022-11-02T17:59:59.990Z,64.60
2022-11-02T18:04:15.086Z,64.90
2022-11-02T18:08:28.836Z,65.10
2022-11-02T18:12:42.753Z,65.20
2022-11-02T18:16:56.730Z,65.40
2022-11-02T18:21:12.897Z,65.40
2022-11-02T18:25:27.568Z,65.60
2022-11-02T18:29:41.664Z,65.70
2022-11-02T18:33:56.663Z,66.00
2022-11-02T18:38:11.974Z,67.00
2022-11-02T18:42:25.807Z,66.40
2022-11-02T18:46:39.533Z,66.70
2022-11-02T18:50:53.238Z,66.90
2022-11-02T18:55:09.499Z,67.30
2022-11-02T18:59:23.176Z,67.80
2022-11-02T19:03:37.350Z,67.80
2022-11-02T19:08:08.395Z,67.90
2022-11-02T19:12:25.084Z,68.60
2022-11-02T19:16:38.818Z,68.80
2022-11-02T19:20:52.510Z,69.00
2022-11-02T19:25:07.066Z,69.40
2022-11-02T19:29:22.926Z,69.70
2022-11-02T19:33:36.682Z,69.70
2022-11-02T19:37:50.336Z,69.70
2022-11-02T19:42:04.314Z,69.60
2022-11-02T19:46:21.944Z,69.80
2022-11-02T19:50:35.652Z,70.00
2022-11-02T19:54:49.323Z,70.10
2022-11-02T19:59:04.453Z,70.30
2022-11-02T20:03:19.582Z,70.60
2022-11-02T20:07:33.394Z,70.80
2022-11-02T20:11:48.471Z,70.90
2022-11-02T20:16:02.959Z,71.10
2022-11-02T20:20:18.963Z,71.20
2022-11-02T20:24:32.669Z,71.20
2022-11-02T20:28:48.374Z,71.20
2022-11-02T20:33:01.988Z,71.60
2022-11-02T20:37:17.131Z,72.10
2022-11-02T20:41:30.964Z,72.60
2022-11-02T20:45:44.798Z,73.20
2022-11-02T20:49:58.538Z,73.50
2022-11-02T20:54:13.983Z,73.50
2022-11-02T20:58:27.937Z,74.10
2022-11-02T21:02:41.612Z,74.40
2022-11-02T21:06:55.397Z,74.70
2022-11-02T21:11:25.764Z,74.80
2022-11-02T21:15:39.521Z,75.00
2022-11-02T21:20:02.811Z,76.20
2022-11-02T21:24:21.843Z,75.80
2022-11-02T21:28:39.259Z,75.80
2022-11-02T21:32:54.943Z,76.30
2022-11-02T21:37:09.662Z,77.00
2022-11-02T21:41:26.595Z,77.40
2022-11-02T21:45:50.410Z,78.10
2022-11-02T21:50:07.098Z,78.30
2022-11-02T21:54:20.756Z,78.60
2022-11-02T21:58:35.227Z,79.10
2022-11-02T22:02:50.706Z,80.00
2022-11-02T22:07:05.088Z,81.00
2022-11-02T22:11:21.721Z,81.60
2022-11-02T22:15:38.271Z,81.80
2022-11-02T22:19:53.627Z,82.10
2022-11-02T22:24:08.274Z,82.40
2022-11-02T22:32:40.493Z,83.70
2022-11-02T22:37:15.838Z,84.10
2022-11-02T22:41:31.123Z,84.70
2022-11-02T22:45:44.845Z,85.40
2022-11-02T22:49:59.169Z,85.90
2022-11-02T22:54:15.861Z,86.30
2022-11-02T22:58:31.067Z,86.60
2022-11-02T23:02:44.735Z,86.80
2022-11-02T23:06:58.422Z,86.80
2022-11-02T23:11:23.320Z,87.30
2022-11-02T23:15:37.001Z,87.60
2022-11-02T23:19:50.641Z,87.80
2022-11-02T23:24:21.819Z,88.10
2022-11-02T23:28:54.530Z,88.40
2022-11-02T23:33:08.718Z,88.60
2022-11-02T23:37:22.727Z,88.30
2022-11-02T23:41:38.715Z,88.00
2022-11-02T23:45:53.820Z,87.90
2022-11-02T23:50:08.413Z,88.10
2022-11-02T23:54:39.839Z,88.80
2022-11-02T23:59:07.185Z,89.20
